Townsend, Tennessee
Current Conditions -  °F | °C
As of 7:53 AM on Friday 28 Nov 2014 (Local Time) from KTYS Reporting Station
Scattered Clouds Scattered Clouds  
Wind Chill: 19°   Ceiling: Unl
Heat Index: 26°   Visibility: 10mi
Dew Point: 20°   Wind: 6mph
Humidity: 78%   Direction: 310°NW
Pressure: 30.44"   Gusts: NA
Location:  35.68°N, 83.76°W
Report Text: KTYS 281253Z 31005KT 10SM FEW040 SCT250 M03/M07 A3044 RMK AO2 PRESRR SLP316 T10331067
Loading
Personal Weather Stations






























Interactive Weather Map New forecast layout! Learn more

10-Day Weather Forecast

Advertisements
Track Severe Weather on mobile